Time;durP1;ratioP1;P1;durP2;ratioP2;P2;SDS_P1;SDS_P2;PMS_P1;PMS_P2;Temp;Humidity;BMP_temperature;BMP_pressure;BME280_temperature;BME280_humidity;BME280_pressure;Samples;Min_cycle;Max_cycle;Signal;HPM_P1;HPM_P2
2022/06/11 00:01:43;;;;;;;8.52;5.97;;;;;;;18.00;73.61;101994.66;5055084;28;20069;-77
2022/06/11 00:04:16;;;;;;;11.55;6.53;;;;;;;18.02;73.46;101999.91;5044409;28;20050;-76
2022/06/11 00:06:50;;;;;;;14.03;6.50;;;;;;;18.00;73.64;101995.50;5037009;28;20483;-76
2022/06/11 00:09:21;;;;;;;10.02;5.75;;;;;;;17.97;73.80;101992.97;5037585;28;20049;-78
2022/06/11 00:11:51;;;;;;;8.45;5.70;;;;;;;17.96;73.61;102001.91;5034850;28;20038;-76
2022/06/11 00:14:26;;;;;;;14.35;6.05;;;;;;;17.96;73.89;101996.56;5033797;28;20046;-77
2022/06/11 00:16:54;;;;;;;9.88;5.05;;;;;;;17.92;73.87;101991.41;5034727;28;20046;-75
2022/06/11 00:19:25;;;;;;;11.00;5.13;;;;;;;17.88;73.68;102001.34;5035005;28;20060;-76
2022/06/11 00:21:55;;;;;;;11.48;4.15;;;;;;;17.80;73.89;101995.47;5054949;28;20174;-80
2022/06/11 00:24:26;;;;;;;8.27;4.38;;;;;;;17.74;74.23;101998.41;5050006;28;20048;-80
2022/06/11 00:26:56;;;;;;;7.07;4.13;;;;;;;17.68;74.17;101997.72;5049880;28;20567;-79
2022/06/11 00:29:28;;;;;;;9.45;4.13;;;;;;;17.61;74.08;101998.03;5042030;28;20057;-79
2022/06/11 00:31:56;;;;;;;7.15;4.60;;;;;;;17.56;74.27;101998.22;5052974;28;20041;-79
2022/06/11 00:34:24;;;;;;;11.55;4.50;;;;;;;17.51;74.61;102002.91;5034841;28;20038;-79
2022/06/11 00:36:51;;;;;;;13.23;4.70;;;;;;;17.44;74.39;101998.75;5034957;28;20479;-80
2022/06/11 00:39:30;;;;;;;8.60;4.25;;;;;;;17.39;74.83;102002.47;5040565;28;20112;-79
2022/06/11 00:42:09;;;;;;;10.10;4.35;;;;;;;17.33;74.46;102000.06;5054345;28;20056;-78
2022/06/11 00:44:36;;;;;;;10.35;4.55;;;;;;;17.28;74.88;101998.50;5050578;28;20041;-78
2022/06/11 00:47:08;;;;;;;6.88;3.97;;;;;;;17.22;74.70;102007.63;5055401;28;20539;-78
2022/06/11 00:49:57;;;;;;;8.68;4.30;;;;;;;17.18;74.74;102001.53;5055584;28;20044;-79
2022/06/11 00:52:36;;;;;;;10.13;4.20;;;;;;;17.12;74.81;101998.25;5036665;28;20056;-78
2022/06/11 00:55:36;;;;;;;7.03;4.63;;;;;;;17.06;74.99;101997.53;5043532;28;20049;-82
2022/06/11 00:58:21;;;;;;;7.95;4.25;;;;;;;17.01;75.27;101994.22;5055274;28;20069;-81
2022/06/11 01:00:56;;;;;;;7.38;4.47;;;;;;;17.00;75.32;101996.91;5076196;28;20046;-77
2022/06/11 01:03:38;;;;;;;11.50;4.78;;;;;;;16.97;75.29;101994.41;5061945;28;20068;-77
2022/06/11 01:06:37;;;;;;;7.28;4.20;;;;;;;16.94;75.48;101994.50;5057590;28;20052;-77
2022/06/11 01:09:28;;;;;;;8.05;4.50;;;;;;;16.91;75.54;101990.13;5034857;28;20042;-77
2022/06/11 01:12:20;;;;;;;7.07;4.05;;;;;;;16.91;75.66;101990.13;5043279;28;20033;-76
2022/06/11 01:15:12;;;;;;;7.93;4.03;;;;;;;16.90;75.52;101988.41;5043655;28;20054;-78
2022/06/11 01:18:28;;;;;;;10.90;3.97;;;;;;;16.87;75.59;101984.06;5041568;28;20045;-79
2022/06/11 01:21:22;;;;;;;5.85;3.90;;;;;;;16.88;75.39;101979.59;5034131;28;20117;-78
2022/06/11 01:25:09;;;;;;;9.93;4.55;;;;;;;16.87;75.10;101991.16;5047272;28;20057;-78
2022/06/11 01:27:48;;;;;;;7.63;3.70;;;;;;;16.84;75.67;101988.66;5050790;28;20045;-76
2022/06/11 01:30:40;;;;;;;6.70;4.03;;;;;;;16.82;75.50;101991.34;5030763;28;20046;-78
2022/06/11 01:33:48;;;;;;;10.07;3.88;;;;;;;16.78;75.45;101989.75;5035754;28;20062;-78
2022/06/11 01:36:26;;;;;;;6.90;4.00;;;;;;;16.74;75.51;101980.13;5028499;28;20050;-78
2022/06/11 01:39:14;;;;;;;6.20;3.40;;;;;;;16.70;75.42;101979.38;5021308;28;20113;-79
2022/06/11 01:41:49;;;;;;;6.65;4.05;;;;;;;16.69;75.76;101982.09;5031826;28;20053;-78
2022/06/11 01:44:33;;;;;;;5.60;3.67;;;;;;;16.66;75.62;101974.22;5034564;28;20045;-77
2022/06/11 01:47:03;;;;;;;6.03;3.75;;;;;;;16.60;75.23;101978.84;5053272;28;20047;-78
2022/06/11 01:49:33;;;;;;;8.05;4.47;;;;;;;16.54;75.76;101975.53;5035709;28;20042;-78
2022/06/11 01:52:28;;;;;;;5.88;4.38;;;;;;;16.45;75.94;101974.97;5052420;28;20124;-78
2022/06/11 01:55:22;;;;;;;7.80;4.57;;;;;;;16.38;75.69;101981.44;5048176;28;20116;-79
2022/06/11 01:58:27;;;;;;;9.15;4.43;;;;;;;16.32;76.20;101976.38;5036866;28;20046;-78
2022/06/11 02:01:23;;;;;;;6.45;4.88;;;;;;;16.24;76.26;101971.31;5053215;28;20553;-79
2022/06/11 02:04:04;;;;;;;13.93;5.50;;;;;;;16.20;76.36;101977.66;5046400;28;20105;-79
2022/06/11 02:06:39;;;;;;;12.10;5.05;;;;;;;16.14;76.42;101983.22;5052870;28;20046;-79
2022/06/11 02:09:23;;;;;;;10.77;5.18;;;;;;;16.08;76.73;101978.97;5048437;28;20153;-78
2022/06/11 02:12:09;;;;;;;13.73;5.23;;;;;;;16.04;77.01;101980.00;5037433;28;20042;-79
2022/06/11 02:14:53;;;;;;;9.77;5.35;;;;;;;15.98;77.03;101982.88;5039549;28;20264;-78
2022/06/11 02:17:34;;;;;;;11.27;5.32;;;;;;;15.91;76.83;101976.91;5033191;28;20042;-77
2022/06/11 02:20:18;;;;;;;9.38;5.13;;;;;;;15.88;77.19;101981.47;5033453;28;20509;-77
2022/06/11 02:23:14;;;;;;;8.95;5.10;;;;;;;15.84;77.59;101978.03;5033245;28;20054;-77
2022/06/11 02:26:00;;;;;;;9.82;5.55;;;;;;;15.79;77.77;101983.50;5032208;28;20053;-79
2022/06/11 02:28:33;;;;;;;9.95;5.32;;;;;;;15.75;77.93;101986.31;5047353;28;20045;-76
2022/06/11 02:31:06;;;;;;;7.93;4.90;;;;;;;15.75;78.16;101988.97;5037182;28;20551;-78
2022/06/11 02:33:36;;;;;;;8.18;5.03;;;;;;;15.74;78.18;101985.41;5032682;28;20050;-77
2022/06/11 02:36:10;;;;;;;7.32;4.90;;;;;;;15.75;78.62;101983.66;5032696;28;20038;-77
2022/06/11 02:38:38;;;;;;;10.20;5.72;;;;;;;15.72;78.48;101987.25;5032609;28;20053;-77
2022/06/11 02:41:19;;;;;;;7.78;4.80;;;;;;;15.72;78.41;101986.41;5031983;28;20641;-77
2022/06/11 02:43:47;;;;;;;8.85;5.63;;;;;;;15.69;78.61;101988.22;5040080;28;20112;-77
2022/06/11 02:49:00;;;;;;;7.93;4.88;;;;;;;15.63;78.45;101990.22;5048695;28;20056;-78
2022/06/11 02:51:30;;;;;;;6.75;4.97;;;;;;;15.59;78.34;101994.78;5046404;28;20045;-77
2022/06/11 02:53:58;;;;;;;11.73;5.25;;;;;;;15.55;78.60;101986.94;5032170;28;20125;-77
2022/06/11 02:56:27;;;;;;;8.38;5.22;;;;;;;15.50;78.54;102001.28;5032807;28;20046;-77
2022/06/11 02:58:54;;;;;;;8.20;5.10;;;;;;;15.46;78.65;101991.66;5032605;28;20038;-77
2022/06/11 03:01:23;;;;;;;9.40;5.55;;;;;;;15.45;78.72;101991.72;5036473;28;20038;-79
2022/06/11 03:03:53;;;;;;;9.40;5.90;;;;;;;15.45;78.82;101991.72;5032703;28;20843;-78
2022/06/11 03:06:25;;;;;;;12.13;5.38;;;;;;;15.43;79.08;102005.03;5047764;28;20053;-77
2022/06/11 03:08:55;;;;;;;11.60;5.50;;;;;;;15.42;79.05;102010.41;5032489;28;20038;-79
2022/06/11 03:11:23;;;;;;;10.18;5.07;;;;;;;15.41;79.21;102000.69;5033485;28;20042;-81
2022/06/11 03:13:52;;;;;;;11.00;5.32;;;;;;;15.40;79.80;102007.81;5034678;28;20065;-82
2022/06/11 03:16:20;;;;;;;8.38;5.03;;;;;;;15.44;79.76;102005.91;5033285;28;20512;-79
2022/06/11 03:18:47;;;;;;;8.45;4.35;;;;;;;15.51;79.60;102012.78;5041501;28;20056;-79
2022/06/11 03:21:14;;;;;;;7.72;4.18;;;;;;;15.57;79.88;102012.56;5038884;28;20042;-80
2022/06/11 03:23:42;;;;;;;6.43;4.68;;;;;;;15.59;79.44;102018.69;5034446;28;20037;-79
2022/06/11 03:26:09;;;;;;;6.68;3.92;;;;;;;15.62;79.52;102023.03;5052975;28;20066;-77
2022/06/11 03:28:38;;;;;;;7.15;4.38;;;;;;;15.62;79.35;102018.59;5058057;28;20503;-80
2022/06/11 03:31:06;;;;;;;6.82;4.45;;;;;;;15.63;79.35;102030.09;5057343;28;20478;-80
2022/06/11 03:33:39;;;;;;;6.05;4.30;;;;;;;15.66;79.37;102022.03;5048705;28;20108;-78
2022/06/11 03:36:10;;;;;;;6.07;4.50;;;;;;;15.67;79.34;102037.06;5039293;28;20122;-79
2022/06/11 03:38:41;;;;;;;7.82;4.50;;;;;;;15.65;79.20;102026.50;5044397;28;20121;-77
2022/06/11 03:41:08;;;;;;;8.90;4.07;;;;;;;15.72;79.04;102026.28;5036852;28;20557;-77
2022/06/11 03:43:36;;;;;;;6.07;3.88;;;;;;;16.03;78.11;102031.44;5035304;28;20038;-78
2022/06/11 03:46:06;;;;;;;8.82;4.10;;;;;;;16.04;77.88;102033.19;5054597;28;20045;-78
2022/06/11 03:48:36;;;;;;;7.45;4.00;;;;;;;16.10;77.65;102042.75;5054104;28;20092;-76
2022/06/11 03:51:07;;;;;;;6.72;3.83;;;;;;;16.05;77.75;102042.91;5040493;28;20070;-76
2022/06/11 03:53:37;;;;;;;7.88;3.83;;;;;;;16.21;77.18;102051.22;5040725;28;20054;-77
2022/06/11 03:56:06;;;;;;;6.65;3.47;;;;;;;16.40;76.48;102053.22;5034407;28;20046;-77
2022/06/11 03:58:36;;;;;;;7.85;3.65;;;;;;;16.44;76.28;102049.56;5036163;28;20042;-77
2022/06/11 04:01:16;;;;;;;6.05;3.60;;;;;;;16.38;76.40;102055.09;5034640;28;20121;-76
2022/06/11 04:03:58;;;;;;;6.20;3.35;;;;;;;16.34;76.47;102053.47;5035631;28;20571;-78
2022/06/11 04:06:31;;;;;;;9.15;4.03;;;;;;;16.33;76.70;102060.56;5037402;28;20041;-79
2022/06/11 04:09:02;;;;;;;6.63;3.35;;;;;;;16.31;76.59;102051.78;5054920;28;20049;-78
2022/06/11 04:11:29;;;;;;;8.38;3.80;;;;;;;16.33;76.55;102057.91;5049643;28;20069;-78
2022/06/11 04:13:57;;;;;;;6.53;3.78;;;;;;;16.35;76.49;102064.03;5046170;28;20053;-80
2022/06/11 04:16:33;;;;;;;5.57;3.40;;;;;;;16.40;76.42;102063.88;5051564;28;20046;-79
2022/06/11 04:19:06;;;;;;;5.53;3.53;;;;;;;16.44;76.28;102069.03;5045929;28;20041;-79
2022/06/11 04:21:36;;;;;;;5.93;3.53;;;;;;;16.56;76.08;102065.09;5046717;28;20034;-80
2022/06/11 04:24:06;;;;;;;6.70;3.67;;;;;;;16.71;75.79;102062.78;5053275;28;20046;-76
2022/06/11 04:26:39;;;;;;;7.47;3.47;;;;;;;16.88;75.12;102076.34;5053439;28;20049;-76
2022/06/11 04:29:11;;;;;;;8.93;3.33;;;;;;;16.99;74.31;102075.97;5045443;28;20042;-78
2022/06/11 04:31:40;;;;;;;5.60;2.90;;;;;;;17.02;74.06;102072.31;5043946;28;20048;-77
2022/06/11 04:34:12;;;;;;;6.32;3.30;;;;;;;17.11;73.19;102071.97;5041723;28;20578;-77
2022/06/11 04:36:40;;;;;;;7.90;3.33;;;;;;;17.23;73.28;102075.97;5036346;28;20064;-78
2022/06/11 04:39:09;;;;;;;5.03;3.20;;;;;;;17.30;73.25;102080.13;5053759;28;20041;-76
2022/06/11 04:41:37;;;;;;;5.78;3.30;;;;;;;17.30;73.17;102088.13;5053859;28;20072;-78
2022/06/11 04:44:05;;;;;;;5.50;3.17;;;;;;;17.30;72.60;102081.91;5034311;28;20046;-73
2022/06/11 04:46:34;;;;;;;4.63;2.50;;;;;;;17.28;71.60;102087.31;5034144;28;20046;-72
2022/06/11 04:49:04;;;;;;;6.60;3.15;;;;;;;17.24;72.14;102085.69;5039775;28;20522;-73
2022/06/11 04:51:32;;;;;;;6.65;3.17;;;;;;;17.25;71.94;102089.22;5034025;28;20037;-73
2022/06/11 04:53:59;;;;;;;8.20;2.83;;;;;;;17.23;70.54;102083.97;5040999;28;20081;-78
2022/06/11 04:56:29;;;;;;;6.60;2.90;;;;;;;17.21;70.93;102084.00;5047696;28;20606;-80
2022/06/11 04:58:57;;;;;;;7.45;2.65;;;;;;;17.18;70.21;102089.47;5043375;28;20423;-79
2022/06/11 05:01:29;;;;;;;4.13;2.38;;;;;;;17.17;69.74;102094.84;5050589;28;20524;-78
2022/06/11 05:03:57;;;;;;;6.85;2.63;;;;;;;17.16;69.93;102096.66;5046440;28;20042;-78
2022/06/11 05:06:31;;;;;;;4.38;2.65;;;;;;;17.21;69.52;102093.81;5033716;28;20092;-78
2022/06/11 05:08:59;;;;;;;6.30;2.22;;;;;;;17.22;68.76;102093.72;5038897;28;20474;-79
2022/06/11 05:11:27;;;;;;;9.02;2.45;;;;;;;17.29;68.82;102089.03;5038556;28;20041;-81
2022/06/11 05:13:54;;;;;;;8.13;2.70;;;;;;;17.40;68.50;102096.59;5040762;28;20053;-81
2022/06/11 05:16:22;;;;;;;7.93;2.58;;;;;;;17.45;68.46;102099.97;5049929;28;20113;-78
2022/06/11 05:18:50;;;;;;;6.63;2.40;;;;;;;17.49;68.10;102098.94;5039447;28;20049;-77
2022/06/11 05:21:19;;;;;;;6.95;2.55;;;;;;;17.63;67.96;102103.72;5048516;28;20527;-78
2022/06/11 05:23:47;;;;;;;6.63;2.35;;;;;;;17.81;67.60;102093.22;5048530;28;20038;-73
2022/06/11 05:26:20;;;;;;;6.97;2.35;;;;;;;17.94;66.52;102096.25;5052935;28;20046;-74
2022/06/11 05:28:48;;;;;;;5.70;2.03;;;;;;;17.94;66.07;102096.25;5043753;28;20044;-76
2022/06/11 05:31:15;;;;;;;9.82;2.85;;;;;;;17.97;65.87;102093.50;5043504;28;20101;-76
2022/06/11 05:33:43;;;;;;;8.38;2.70;;;;;;;18.11;65.58;102103.56;5044727;28;20570;-75
2022/06/11 05:36:15;;;;;;;6.35;2.63;;;;;;;18.22;65.56;102105.78;5041799;28;20507;-74
2022/06/11 05:38:42;;;;;;;7.90;2.40;;;;;;;18.21;64.84;102107.59;5038445;28;20038;-78
2022/06/11 05:41:10;;;;;;;9.38;2.45;;;;;;;18.11;63.54;102104.44;5030782;28;20492;-71
2022/06/11 05:43:37;;;;;;;4.80;1.73;;;;;;;17.96;62.48;102105.06;5029590;28;20042;-74
2022/06/11 05:46:14;;;;;;;7.45;2.33;;;;;;;17.90;63.19;102102.66;5044610;28;20038;-72
2022/06/11 05:48:53;;;;;;;7.85;2.33;;;;;;;17.84;64.36;102099.28;5048372;28;20694;-74
2022/06/11 05:51:30;;;;;;;11.77;2.30;;;;;;;17.99;63.58;102110.31;5035357;28;20046;-73
2022/06/11 05:54:02;;;;;;;8.38;2.47;;;;;;;18.39;61.79;102107.72;5048189;28;20049;-73
2022/06/11 05:56:30;;;;;;;8.05;2.45;;;;;;;20.05;58.25;102106.31;5043492;28;20046;-75
2022/06/11 05:59:04;;;;;;;10.00;2.10;;;;;;;20.40;54.91;102110.81;5042917;28;20038;-72
2022/06/11 06:01:37;;;;;;;8.05;2.20;;;;;;;20.75;54.99;102095.59;5028950;28;20862;-74
2022/06/11 06:04:04;;;;;;;8.25;2.20;;;;;;;20.62;54.65;102105.19;5037715;28;20041;-73
2022/06/11 06:06:32;;;;;;;8.40;1.80;;;;;;;21.33;52.69;102101.38;5034643;28;20509;-74
2022/06/11 06:09:00;;;;;;;9.18;2.00;;;;;;;22.89;50.83;102103.94;5029541;28;20046;-73
2022/06/11 06:11:27;;;;;;;9.82;2.55;;;;;;;22.96;48.84;102111.50;5036423;28;20034;-73
2022/06/11 06:13:56;;;;;;;8.07;1.73;;;;;;;22.64;48.62;102113.53;5038947;28;20061;-74
2022/06/11 06:16:29;;;;;;;11.15;2.20;;;;;;;23.56;45.97;102105.97;5036559;28;20038;-75
2022/06/11 06:19:00;;;;;;;8.07;2.13;;;;;;;22.71;47.02;102119.38;5034510;28;20140;-73
2022/06/11 06:21:33;;;;;;;11.18;2.33;;;;;;;21.50;50.07;102113.00;5032989;28;20089;-75
2022/06/11 06:24:01;;;;;;;10.73;2.53;;;;;;;20.60;52.81;102117.81;5031980;28;20133;-75
2022/06/11 06:26:30;;;;;;;12.18;2.75;;;;;;;20.15;53.74;102110.28;5033178;28;20081;-72
2022/06/11 06:28:59;;;;;;;9.57;2.40;;;;;;;19.89;54.59;102111.56;5034035;28;20136;-75
2022/06/11 06:31:26;;;;;;;12.77;2.30;;;;;;;19.77;55.18;102118.38;5034634;28;20026;-74
2022/06/11 06:33:58;;;;;;;10.35;2.60;;;;;;;19.64;55.56;102110.06;5034643;28;20051;-74
2022/06/11 06:36:32;;;;;;;9.18;2.05;;;;;;;19.69;55.75;102121.41;5032591;28;20148;-73
2022/06/11 06:39:00;;;;;;;11.82;2.42;;;;;;;19.82;55.67;102116.31;5031690;28;20058;-74
2022/06/11 06:41:27;;;;;;;11.95;2.45;;;;;;;19.99;55.45;102125.38;5042042;28;20050;-71
2022/06/11 06:43:55;;;;;;;9.88;2.20;;;;;;;20.22;54.35;102121.53;5039418;28;20045;-74
2022/06/11 06:46:22;;;;;;;11.43;2.38;;;;;;;20.23;54.35;102127.75;5035575;28;20042;-73
2022/06/11 06:48:50;;;;;;;9.55;2.25;;;;;;;20.00;54.06;102119.94;5031818;28;20076;-72
2022/06/11 06:51:18;;;;;;;13.50;2.33;;;;;;;19.92;54.48;102127.50;5042150;28;20034;-73
2022/06/11 06:53:46;;;;;;;10.73;2.25;;;;;;;19.95;54.86;102126.47;5034779;28;20042;-72
2022/06/11 06:56:13;;;;;;;10.52;2.10;;;;;;;19.95;55.40;102119.28;5035498;28;20460;-72
2022/06/11 06:58:41;;;;;;;9.43;2.42;;;;;;;20.05;55.54;102130.41;5037672;28;20813;-72
2022/06/11 07:01:09;;;;;;;11.90;2.50;;;;;;;20.13;55.52;102122.00;5021051;28;20129;-72
2022/06/11 07:03:41;;;;;;;7.55;2.22;;;;;;;20.16;55.14;102136.09;5033762;28;20626;-73
2022/06/11 07:06:32;;;;;;;14.73;2.70;;;;;;;20.21;54.33;102135.88;5037959;28;21083;-73
2022/06/11 07:09:01;;;;;;;13.25;2.75;;;;;;;20.19;53.17;102129.72;5053082;28;20045;-72
2022/06/11 07:11:28;;;;;;;11.13;2.75;;;;;;;20.27;53.24;102129.34;5036925;28;20458;-72
2022/06/11 07:13:56;;;;;;;16.25;3.00;;;;;;;20.38;53.83;102132.34;5034548;28;20053;-73
2022/06/11 07:16:48;;;;;;;16.15;2.83;;;;;;;20.51;53.51;102129.00;5028847;28;20474;-74
2022/06/11 07:19:21;;;;;;;14.02;2.55;;;;;;;20.67;53.40;102127.25;5038611;28;20038;-73
2022/06/11 07:21:56;;;;;;;16.65;3.00;;;;;;;20.71;52.49;102127.97;5054235;28;20049;-72
2022/06/11 07:24:31;;;;;;;12.40;2.40;;;;;;;20.64;53.23;102128.28;5056961;28;20045;-73
2022/06/11 07:27:06;;;;;;;18.20;3.58;;;;;;;20.53;53.30;102125.31;5064719;28;20045;-73
2022/06/11 07:29:46;;;;;;;13.07;2.83;;;;;;;20.37;53.18;102132.38;5054270;28;20936;-73
2022/06/11 07:32:21;;;;;;;17.08;3.08;;;;;;;20.07;54.25;102125.84;5037677;28;20038;-73
2022/06/11 07:34:49;;;;;;;18.20;3.15;;;;;;;19.85;55.10;102134.03;5032847;28;20125;-73
2022/06/11 07:37:18;;;;;;;12.93;2.97;;;;;;;19.75;55.65;102128.28;5032800;28;20538;-74
2022/06/11 07:39:45;;;;;;;11.68;2.92;;;;;;;19.69;56.25;102133.91;5036016;28;20133;-73
2022/06/11 07:42:13;;;;;;;13.23;2.97;;;;;;;19.62;55.82;102136.03;5030079;28;20049;-73
2022/06/11 07:44:40;;;;;;;15.95;3.10;;;;;;;19.58;56.56;102134.44;5028280;28;20108;-74
2022/06/11 07:47:08;;;;;;;13.20;3.17;;;;;;;19.58;57.27;102138.94;5033717;28;20806;-74
2022/06/11 07:49:35;;;;;;;15.60;2.90;;;;;;;19.65;57.14;102129.66;5034737;28;20049;-73
2022/06/11 07:52:03;;;;;;;14.18;2.70;;;;;;;19.80;55.79;102128.91;5032012;28;20892;-73
2022/06/11 07:54:33;;;;;;;17.63;3.10;;;;;;;19.71;56.72;102124.00;5038213;28;20037;-72
2022/06/11 07:57:05;;;;;;;12.68;2.88;;;;;;;19.81;56.61;102117.28;5031352;28;20061;-75
2022/06/11 07:59:35;;;;;;;14.80;2.78;;;;;;;19.98;56.65;102126.31;5038240;28;20140;-75
2022/06/11 08:02:03;;;;;;;12.80;2.95;;;;;;;20.12;56.66;102131.84;5034080;28;20361;-76
2022/06/11 08:04:30;;;;;;;14.52;3.30;;;;;;;20.34;56.21;102136.09;5028797;28;20049;-74
2022/06/11 08:06:57;;;;;;;11.75;3.10;;;;;;;20.57;55.75;102142.94;5034452;28;20468;-73
2022/06/11 08:09:25;;;;;;;12.68;2.75;;;;;;;20.78;55.66;102140.09;5038679;28;20578;-73
2022/06/11 08:11:53;;;;;;;12.18;3.30;;;;;;;21.04;54.95;102137.84;5033183;28;20904;-75
2022/06/11 08:14:22;;;;;;;12.57;2.95;;;;;;;21.34;54.66;102134.44;5033861;28;20128;-75
2022/06/11 08:16:49;;;;;;;16.73;3.63;;;;;;;21.47;53.25;102143.50;5036078;28;20132;-74
2022/06/11 08:19:16;;;;;;;22.33;3.63;;;;;;;21.55;53.42;102152.03;5041722;28;20041;-75
2022/06/11 08:21:43;;;;;;;13.95;3.30;;;;;;;21.65;53.45;102143.47;5041674;28;20045;-74
2022/06/11 08:24:10;;;;;;;18.17;3.60;;;;;;;21.67;53.85;102150.47;5048271;28;20038;-74
2022/06/11 08:26:38;;;;;;;13.52;3.50;;;;;;;21.70;53.46;102155.69;5045207;28;20124;-74
2022/06/11 08:29:05;;;;;;;16.55;3.47;;;;;;;21.81;52.84;102155.06;5042964;28;20038;-74
2022/06/11 08:31:32;;;;;;;22.60;3.20;;;;;;;21.99;53.38;102144.19;5040269;28;20108;-76
2022/06/11 08:34:00;;;;;;;16.65;3.50;;;;;;;22.15;52.66;102155.78;5047047;28;20054;-76
2022/06/11 08:36:27;;;;;;;17.73;3.53;;;;;;;22.31;52.34;102155.75;5041772;28;20117;-76
2022/06/11 08:38:54;;;;;;;15.48;3.08;;;;;;;22.42;53.36;102159.66;5047993;28;20048;-75
2022/06/11 08:41:33;;;;;;;15.25;3.38;;;;;;;22.57;51.17;102156.03;5048474;28;20868;-74
2022/06/11 08:44:08;;;;;;;13.40;3.55;;;;;;;22.71;51.61;102159.69;5049649;28;20040;-72
2022/06/11 08:46:41;;;;;;;17.20;3.92;;;;;;;22.86;51.32;102161.44;5042106;28;20042;-74
2022/06/11 08:49:25;;;;;;;11.50;3.33;;;;;;;23.14;50.97;102164.22;5041463;28;20137;-74
2022/06/11 08:52:08;;;;;;;13.43;2.92;;;;;;;23.32;49.25;102173.84;5043552;28;20045;-75
2022/06/11 08:54:41;;;;;;;10.07;2.63;;;;;;;23.51;48.72;102159.22;5046947;28;20134;-78
2022/06/11 08:57:49;;;;;;;13.98;2.85;;;;;;;23.34;48.06;102163.88;5052316;28;20041;-77
2022/06/11 09:00:39;;;;;;;15.27;2.83;;;;;;;23.26;47.22;102161.66;5035742;28;20121;-78
2022/06/11 09:03:48;;;;;;;12.35;2.75;;;;;;;23.42;48.34;102171.44;5047215;28;20121;-76
2022/06/11 09:06:41;;;;;;;17.88;3.30;;;;;;;23.43;46.56;102165.13;5036853;28;20125;-77
2022/06/11 09:09:31;;;;;;;14.18;3.33;;;;;;;23.25;47.84;102161.75;5035472;28;20100;-77
2022/06/11 09:12:16;;;;;;;12.68;3.60;;;;;;;23.30;49.24;102161.47;5034684;28;20037;-77
2022/06/11 09:15:18;;;;;;;12.10;3.10;;;;;;;23.24;49.46;102165.41;5043278;28;20467;-78
2022/06/11 09:18:21;;;;;;;17.42;3.15;;;;;;;23.23;48.09;102164.56;5044476;28;20129;-77
2022/06/11 09:21:09;;;;;;;15.80;3.50;;;;;;;23.31;47.74;102168.59;5034225;28;20112;-77
2022/06/11 09:24:27;;;;;;;16.40;3.63;;;;;;;23.33;48.17;102155.91;5052258;28;20046;-77
2022/06/11 09:27:23;;;;;;;14.82;3.72;;;;;;;23.51;48.93;102154.72;5033764;28;20037;-77
2022/06/11 09:30:03;;;;;;;12.80;3.13;;;;;;;23.71;49.03;102150.69;5042134;28;20621;-77
2022/06/11 09:32:51;;;;;;;13.98;3.70;;;;;;;23.92;48.94;102161.03;5045005;28;20156;-77
2022/06/11 09:35:35;;;;;;;14.40;3.05;;;;;;;24.01;47.85;102164.97;5038383;28;20507;-76
2022/06/11 09:38:39;;;;;;;13.73;2.70;;;;;;;23.83;46.10;102167.91;5050324;28;20052;-76
2022/06/11 09:41:46;;;;;;;12.93;3.15;;;;;;;23.57;45.52;102164.22;5036743;28;20831;-77
2022/06/11 09:44:54;;;;;;;13.32;2.80;;;;;;;23.40;46.05;102163.47;5036273;28;20037;-76
2022/06/11 09:47:46;;;;;;;16.25;3.70;;;;;;;23.37;45.68;102160.09;5036636;28;20141;-76
2022/06/11 09:50:33;;;;;;;15.07;3.45;;;;;;;23.31;46.82;102157.81;5047180;28;20045;-77
2022/06/11 09:53:21;;;;;;;13.93;3.22;;;;;;;23.39;47.11;102153.69;5043689;28;20046;-76
2022/06/11 09:55:58;;;;;;;12.38;3.00;;;;;;;23.35;47.17;102165.59;5033778;28;20050;-77
2022/06/11 09:58:59;;;;;;;15.18;2.60;;;;;;;23.43;45.34;102162.41;5043220;28;20072;-77
2022/06/11 10:01:51;;;;;;;14.48;2.88;;;;;;;23.48;45.74;102159.44;5041957;28;20124;-75
2022/06/11 10:04:29;;;;;;;13.50;2.67;;;;;;;23.46;46.11;102169.44;5042628;28;20044;-77
2022/06/11 10:07:11;;;;;;;14.13;2.85;;;;;;;23.42;44.66;102163.38;5042901;28;20512;-76
2022/06/11 10:09:48;;;;;;;12.60;2.45;;;;;;;23.26;45.82;102166.19;5036505;28;20367;-77
2022/06/11 10:12:27;;;;;;;16.02;2.63;;;;;;;23.13;45.45;102162.50;5034681;28;20073;-75
2022/06/11 10:15:46;;;;;;;10.25;2.20;;;;;;;23.18;44.88;102176.53;5044431;28;20115;-77
2022/06/11 10:18:35;;;;;;;9.68;2.40;;;;;;;23.27;43.38;102168.75;5044014;28;20077;-75
2022/06/11 10:21:14;;;;;;;8.73;2.00;;;;;;;23.33;43.62;102163.97;5033428;28;20121;-78
2022/06/11 10:23:52;;;;;;;11.52;2.65;;;;;;;23.42;44.20;102152.63;5034444;28;20088;-74
2022/06/11 10:26:51;;;;;;;7.03;2.08;;;;;;;23.48;45.22;102162.97;5030789;28;20041;-76
2022/06/11 10:29:41;;;;;;;11.68;3.00;;;;;;;23.53;44.71;102160.88;5034838;28;20849;-76
2022/06/11 10:32:26;;;;;;;10.30;2.28;;;;;;;23.56;45.86;102166.03;5032210;28;20049;-74
2022/06/11 10:35:16;;;;;;;11.27;1.98;;;;;;;23.72;42.50;102163.19;5041757;28;20496;-75
2022/06/11 10:38:00;;;;;;;10.73;1.65;;;;;;;23.78;40.71;102163.78;5032340;28;20074;-76
2022/06/11 10:40:41;;;;;;;7.22;1.60;;;;;;;23.83;42.10;102172.41;5044117;28;20049;-76
2022/06/11 10:43:28;;;;;;;18.13;1.95;;;;;;;23.94;41.08;102172.56;5045576;28;20507;-76
2022/06/11 10:45:57;;;;;;;12.20;2.10;;;;;;;23.95;41.69;102168.94;5033842;28;20052;-75
2022/06/11 10:48:33;;;;;;;8.88;1.50;;;;;;;24.09;40.88;102169.84;5038532;28;20114;-75
2022/06/11 10:51:12;;;;;;;9.48;2.10;;;;;;;24.21;41.19;102166.34;5043705;28;20113;-75
2022/06/11 10:53:54;;;;;;;7.35;1.90;;;;;;;24.49;40.99;102169.84;5056555;28;20112;-75
2022/06/11 10:56:40;;;;;;;11.15;1.92;;;;;;;24.63;40.19;102160.78;5042739;28;20587;-76
2022/06/11 10:59:32;;;;;;;12.13;2.22;;;;;;;24.57;40.38;102172.00;5041857;28;20124;-76
2022/06/11 11:02:25;;;;;;;12.23;2.55;;;;;;;24.39;41.21;102168.75;5042291;28;20043;-74
2022/06/11 11:05:07;;;;;;;8.93;2.10;;;;;;;24.45;42.29;102165.63;5045141;28;20092;-74
2022/06/11 11:07:44;;;;;;;9.10;1.98;;;;;;;24.61;40.61;102165.41;5043221;28;20563;-74
2022/06/11 11:10:44;;;;;;;10.02;2.17;;;;;;;24.46;41.48;102160.13;5041517;28;20042;-73
2022/06/11 11:13:23;;;;;;;9.45;1.77;;;;;;;24.58;41.70;102154.84;5039349;28;20518;-73
2022/06/11 11:16:15;;;;;;;11.07;2.15;;;;;;;24.61;40.89;102154.63;5042152;28;20049;-76
2022/06/11 11:19:25;;;;;;;16.98;2.30;;;;;;;24.59;41.96;102151.19;5038950;28;20033;-74
2022/06/11 11:22:15;;;;;;;11.38;2.17;;;;;;;24.69;40.80;102151.44;5036463;28;20042;-74
2022/06/11 11:24:53;;;;;;;8.63;2.00;;;;;;;24.75;41.77;102156.41;5044810;28;20055;-74
2022/06/11 11:27:41;;;;;;;7.70;2.30;;;;;;;24.83;39.78;102140.53;5037466;28;20116;-76
2022/06/11 11:30:14;;;;;;;12.13;2.40;;;;;;;24.79;40.74;102147.97;5046340;28;20041;-77
2022/06/11 11:32:47;;;;;;;11.75;2.22;;;;;;;24.83;40.82;102140.53;5042068;28;20038;-76
2022/06/11 11:35:20;;;;;;;10.60;2.63;;;;;;;24.94;41.37;102142.50;5042826;28;20168;-74
2022/06/11 11:38:13;;;;;;;10.35;2.17;;;;;;;25.05;40.28;102147.09;5041425;28;20117;-74
2022/06/11 11:40:54;;;;;;;11.35;2.50;;;;;;;25.13;40.53;102150.13;5040474;28;20072;-74
2022/06/11 11:43:24;;;;;;;9.50;2.22;;;;;;;25.20;40.34;102145.13;5039049;28;20091;-75
2022/06/11 11:46:03;;;;;;;11.40;2.15;;;;;;;25.27;39.78;102146.44;5047187;28;20041;-76
2022/06/11 11:48:56;;;;;;;8.00;1.90;;;;;;;25.33;39.36;102147.84;5043533;28;20042;-76
2022/06/11 11:51:40;;;;;;;9.43;2.35;;;;;;;25.33;39.01;102145.97;5040354;28;20672;-76
2022/06/11 11:54:19;;;;;;;10.10;2.28;;;;;;;25.18;40.28;102145.25;5042802;28;20045;-75
2022/06/11 11:57:00;;;;;;;12.65;2.35;;;;;;;25.19;40.02;102144.28;5040583;28;20482;-74
2022/06/11 11:59:53;;;;;;;8.93;1.98;;;;;;;25.42;40.22;102137.25;5047314;28;20037;-74
2022/06/11 12:02:30;;;;;;;9.48;2.35;;;;;;;25.64;40.47;102138.34;5044210;28;20045;-76
2022/06/11 12:05:19;;;;;;;10.32;2.30;;;;;;;25.88;40.20;102132.94;5048603;28;20048;-75
2022/06/11 12:07:48;;;;;;;10.13;2.10;;;;;;;26.16;40.26;102136.28;5043363;28;20038;-76
2022/06/11 12:10:29;;;;;;;10.93;2.47;;;;;;;26.34;39.85;102133.16;5045250;28;20033;-74